createdAt,value
2022-12-11T00:00:43.524Z,8.32
2022-12-11T00:03:15.449Z,7.85
2022-12-11T00:05:42.732Z,7.03
2022-12-11T00:08:09.164Z,7.53
2022-12-11T00:10:38.006Z,7.70
2022-12-11T00:13:05.185Z,8.55
2022-12-11T00:15:31.541Z,8.88
2022-12-11T00:17:57.911Z,7.78
2022-12-11T00:20:24.831Z,6.38
2022-12-11T00:22:51.223Z,7.70
2022-12-11T00:25:17.708Z,7.00
2022-12-11T00:27:45.973Z,7.40
2022-12-11T00:30:12.879Z,9.25
2022-12-11T00:32:39.279Z,8.10
2022-12-11T00:35:05.666Z,6.32
2022-12-11T00:37:32.124Z,6.80
2022-12-11T00:39:58.622Z,7.25
2022-12-11T00:42:24.966Z,8.45
2022-12-11T00:44:51.418Z,6.88
2022-12-11T00:47:17.830Z,7.03
2022-12-11T00:49:49.623Z,7.25
2022-12-11T00:52:17.786Z,6.13
2022-12-11T01:06:55.860Z,7.28
2022-12-11T01:09:41.076Z,7.60
2022-12-11T01:12:07.477Z,7.60
2022-12-11T01:14:33.814Z,8.02
2022-12-11T01:17:00.203Z,9.25
2022-12-11T01:19:26.716Z,7.32
2022-12-11T01:21:53.082Z,6.68
2022-12-11T01:24:19.459Z,7.40
2022-12-11T01:26:45.820Z,8.05
2022-12-11T01:29:12.274Z,8.07
2022-12-11T01:31:38.716Z,7.63
2022-12-11T01:34:05.048Z,7.65
2022-12-11T01:36:31.403Z,6.97
2022-12-11T01:38:58.040Z,8.68
2022-12-11T01:41:24.483Z,7.43
2022-12-11T01:44:27.595Z,7.72
2022-12-11T01:46:54.414Z,11.95
2022-12-11T01:49:25.232Z,7.80
2022-12-11T01:51:59.305Z,9.23
2022-12-11T01:56:58.973Z,8.05
2022-12-11T01:59:29.097Z,6.85
2022-12-11T02:02:04.759Z,9.20
2022-12-11T02:04:33.016Z,7.68
2022-12-11T02:06:59.473Z,6.88
2022-12-11T02:09:35.467Z,7.65
2022-12-11T02:12:03.986Z,7.95
2022-12-11T02:14:44.195Z,8.07
2022-12-11T02:20:12.813Z,9.25
2022-12-11T02:23:16.869Z,7.03
2022-12-11T02:26:07.195Z,6.68
2022-12-11T02:28:46.083Z,9.07
2022-12-11T02:31:23.530Z,7.60
2022-12-11T02:34:01.768Z,7.68
2022-12-11T02:36:33.166Z,9.32
2022-12-11T02:39:01.494Z,8.40
2022-12-11T02:41:29.864Z,7.85
2022-12-11T02:43:57.838Z,7.85
2022-12-11T02:48:52.741Z,7.78
2022-12-11T02:51:23.993Z,7.45
2022-12-11T02:53:53.585Z,8.52
2022-12-11T02:56:26.819Z,7.45
2022-12-11T02:59:01.817Z,6.85
2022-12-11T03:01:28.312Z,7.03
2022-12-11T03:03:55.885Z,7.07
2022-12-11T03:06:27.548Z,6.88
2022-12-11T03:08:53.969Z,7.05
2022-12-11T03:11:20.374Z,8.15
2022-12-11T03:13:46.761Z,7.65
2022-12-11T03:16:37.042Z,6.85
2022-12-11T03:19:22.742Z,7.45
2022-12-11T03:21:54.699Z,6.72
2022-12-11T03:24:33.671Z,7.85
2022-12-11T03:27:25.854Z,6.80
2022-12-11T03:30:00.156Z,6.95
2022-12-11T03:32:36.470Z,6.93
2022-12-11T03:35:13.663Z,6.22
2022-12-11T03:37:42.231Z,7.15
2022-12-11T03:40:15.064Z,8.63
2022-12-11T03:42:45.098Z,8.07
2022-12-11T03:45:14.235Z,7.85
2022-12-11T03:47:43.139Z,6.80
2022-12-11T03:50:12.793Z,8.00
2022-12-11T03:52:46.040Z,7.30
2022-12-11T03:55:15.774Z,7.50
2022-12-11T03:57:42.513Z,7.13
2022-12-11T04:00:13.542Z,7.22
2022-12-11T04:02:41.169Z,7.38
2022-12-11T04:05:09.112Z,7.25
2022-12-11T04:07:35.962Z,7.53
2022-12-11T04:10:02.851Z,7.28
2022-12-11T04:12:29.172Z,7.05
2022-12-11T04:15:04.324Z,6.95
2022-12-11T04:17:51.320Z,7.70
2022-12-11T04:20:37.095Z,8.38
2022-12-11T04:23:24.014Z,7.00
2022-12-11T04:25:50.515Z,8.40
2022-12-11T04:28:16.957Z,6.63
2022-12-11T04:30:51.065Z,7.20
2022-12-11T04:38:10.084Z,6.13
2022-12-11T04:40:36.471Z,7.63
2022-12-11T04:43:03.184Z,7.00
2022-12-11T04:45:29.550Z,7.63
2022-12-11T04:47:55.894Z,6.75
2022-12-11T04:50:22.299Z,7.07
2022-12-11T04:52:48.683Z,6.85
2022-12-11T04:55:15.021Z,6.60
2022-12-11T04:57:41.718Z,7.40
2022-12-11T05:00:10.843Z,6.47
2022-12-11T05:02:38.683Z,6.25
2022-12-11T05:05:06.496Z,6.63
2022-12-11T05:07:33.045Z,6.00
2022-12-11T05:09:59.480Z,7.07
2022-12-11T05:12:26.026Z,7.78
2022-12-11T05:14:53.557Z,7.85
2022-12-11T05:17:21.424Z,6.93
2022-12-11T05:19:49.147Z,6.20
2022-12-11T05:22:16.188Z,8.02
2022-12-11T05:24:42.669Z,7.60
2022-12-11T05:27:10.075Z,7.25
2022-12-11T05:29:36.866Z,8.20
2022-12-11T05:32:04.804Z,7.43
2022-12-11T05:41:50.039Z,6.65
2022-12-11T05:44:16.517Z,7.22
2022-12-11T05:46:42.902Z,6.93
2022-12-11T05:49:10.851Z,6.70
2022-12-11T05:54:05.910Z,6.15
2022-12-11T05:56:34.022Z,6.15
2022-12-11T05:59:02.007Z,6.80
2022-12-11T06:03:57.188Z,5.95
2022-12-11T06:06:24.277Z,6.28
2022-12-11T06:08:55.082Z,7.20
2022-12-11T06:11:24.206Z,6.80
2022-12-11T06:13:51.511Z,7.40
2022-12-11T06:16:18.006Z,7.40
2022-12-11T06:18:45.569Z,7.45
2022-12-11T06:21:12.504Z,6.45
2022-12-11T06:26:07.047Z,6.30
2022-12-11T06:28:33.406Z,7.78
2022-12-11T06:31:00.364Z,6.60
2022-12-11T06:33:26.826Z,6.32
2022-12-11T06:35:53.533Z,7.28
2022-12-11T06:38:19.877Z,7.72
2022-12-11T06:40:46.230Z,6.82
2022-12-11T06:43:12.590Z,7.22
2022-12-11T06:45:39.066Z,6.38
2022-12-11T06:48:05.602Z,6.78
2022-12-11T06:50:32.004Z,6.47
2022-12-11T06:52:58.347Z,7.22
2022-12-11T06:55:24.678Z,6.97
2022-12-11T06:57:51.183Z,6.70
2022-12-11T07:00:17.609Z,6.93
2022-12-11T07:02:44.140Z,7.85
2022-12-11T07:05:10.969Z,7.10
2022-12-11T07:07:37.748Z,7.15
2022-12-11T07:10:08.335Z,6.93
2022-12-11T07:12:35.561Z,6.47
2022-12-11T07:15:02.216Z,6.80
2022-12-11T07:17:29.637Z,7.43
2022-12-11T07:19:56.187Z,7.30
2022-12-11T07:22:22.713Z,6.72
2022-12-11T07:24:49.093Z,6.47
2022-12-11T07:27:15.452Z,7.88
2022-12-11T07:29:41.812Z,6.82
2022-12-11T07:32:08.275Z,7.75
2022-12-11T07:34:34.815Z,7.50
2022-12-11T07:37:01.231Z,6.63
2022-12-11T07:39:27.632Z,6.95
2022-12-11T07:41:54.004Z,7.57
2022-12-11T07:44:20.623Z,8.65
2022-12-11T07:46:47.230Z,8.80
2022-12-11T07:49:13.599Z,8.07
2022-12-11T07:51:40.212Z,8.75
2022-12-11T07:54:10.646Z,7.75
2022-12-11T07:56:36.996Z,7.25
2022-12-11T07:59:05.917Z,7.50
2022-12-11T08:01:36.332Z,7.30
2022-12-11T08:04:05.326Z,7.53
2022-12-11T08:06:34.641Z,7.82
2022-12-11T08:09:03.643Z,7.00
2022-12-11T08:11:30.544Z,7.60
2022-12-11T08:13:59.259Z,8.00
2022-12-11T08:16:26.560Z,8.43
2022-12-11T08:18:53.460Z,9.00
2022-12-11T08:21:22.655Z,8.15
2022-12-11T08:23:50.336Z,7.97
2022-12-11T08:26:28.353Z,8.25
2022-12-11T08:28:55.421Z,9.00
2022-12-11T08:31:22.469Z,7.53
2022-12-11T08:33:49.233Z,7.72
2022-12-11T08:36:18.734Z,7.97
2022-12-11T08:38:46.546Z,10.25
2022-12-11T08:41:21.911Z,7.47
2022-12-11T08:43:48.437Z,6.25
2022-12-11T08:46:15.510Z,6.68
2022-12-11T08:48:43.280Z,7.88
2022-12-11T08:51:14.777Z,6.63
2022-12-11T08:53:41.525Z,8.18
2022-12-11T08:56:11.155Z,7.78
2022-12-11T08:58:37.772Z,7.18
2022-12-11T09:01:12.159Z,8.98
2022-12-11T09:03:39.954Z,7.03
2022-12-11T09:06:11.880Z,7.45
2022-12-11T09:08:39.663Z,7.38
2022-12-11T09:11:11.262Z,7.55
2022-12-11T09:13:39.007Z,8.55
2022-12-11T09:16:08.014Z,7.43
2022-12-11T09:18:34.718Z,7.45
2022-12-11T09:21:03.828Z,7.80
2022-12-11T09:23:30.406Z,7.40
2022-12-11T09:25:57.123Z,6.57
2022-12-11T09:28:23.767Z,7.63
2022-12-11T09:30:50.927Z,6.85
2022-12-11T09:33:17.800Z,6.57
2022-12-11T09:35:44.222Z,6.97
2022-12-11T09:38:10.605Z,7.13
2022-12-11T09:40:43.182Z,8.20
2022-12-11T09:43:17.185Z,7.53
2022-12-11T09:50:37.632Z,7.50
2022-12-11T09:53:18.759Z,6.43
2022-12-11T09:56:00.213Z,7.90
2022-12-11T09:58:51.080Z,8.10
2022-12-11T10:01:35.795Z,7.68
2022-12-11T10:04:22.852Z,7.43
2022-12-11T10:06:56.534Z,5.97
2022-12-11T10:09:35.877Z,5.85
2022-12-11T10:12:13.451Z,6.35
2022-12-11T10:14:47.015Z,5.63
2022-12-11T10:17:20.798Z,4.95
2022-12-11T10:19:48.279Z,5.50
2022-12-11T10:22:22.754Z,4.05
2022-12-11T10:25:12.731Z,5.40
2022-12-11T10:27:40.759Z,6.40
2022-12-11T10:35:33.933Z,5.30
2022-12-11T10:38:30.491Z,4.57
2022-12-11T10:41:26.867Z,4.97
2022-12-11T10:43:53.816Z,6.22
2022-12-11T10:46:25.890Z,5.85
2022-12-11T10:48:53.629Z,5.82
2022-12-11T10:51:26.427Z,5.18
2022-12-11T10:53:55.518Z,7.00
2022-12-11T10:56:27.291Z,6.45
2022-12-11T10:58:55.184Z,5.32
2022-12-11T11:04:18.903Z,6.15
2022-12-11T11:06:45.280Z,5.18
2022-12-11T11:09:33.691Z,7.28
2022-12-11T11:12:05.975Z,7.28
2022-12-11T11:14:34.213Z,9.13
2022-12-11T11:17:01.171Z,6.38
2022-12-11T11:19:33.539Z,5.88
2022-12-11T11:22:14.792Z,6.93
2022-12-11T11:24:51.967Z,6.93
2022-12-11T11:27:30.994Z,7.95
2022-12-11T11:30:01.595Z,5.97
2022-12-11T11:32:34.206Z,8.98
2022-12-11T11:35:18.554Z,6.90
2022-12-11T11:37:59.794Z,8.32
2022-12-11T11:40:30.385Z,6.00
2022-12-11T11:43:18.516Z,6.13
2022-12-11T11:46:00.728Z,6.75
2022-12-11T11:48:48.964Z,7.30
2022-12-11T11:51:18.443Z,6.55
2022-12-11T11:53:49.656Z,7.93
2022-12-11T11:56:26.595Z,7.35
2022-12-11T11:59:19.043Z,6.85
2022-12-11T12:01:45.507Z,4.28
2022-12-11T12:04:12.270Z,6.13
2022-12-11T12:06:51.189Z,5.95
2022-12-11T12:09:30.394Z,4.80
2022-12-11T12:12:25.667Z,3.63
2022-12-11T12:15:18.318Z,5.53
2022-12-11T12:17:56.204Z,4.43
2022-12-11T12:20:44.418Z,5.60
2022-12-11T12:23:38.483Z,6.40
2022-12-11T12:26:21.811Z,6.25
2022-12-11T12:29:14.155Z,6.63
2022-12-11T12:34:20.357Z,6.22
2022-12-11T12:37:00.225Z,7.15
2022-12-11T12:39:44.543Z,6.90
2022-12-11T12:42:37.923Z,5.32
2022-12-11T12:45:16.335Z,5.07
2022-12-11T12:47:50.411Z,5.80
2022-12-11T12:50:25.700Z,6.10
2022-12-11T12:52:53.845Z,4.40
2022-12-11T12:55:34.779Z,4.95
2022-12-11T12:58:05.144Z,5.25
2022-12-11T13:00:37.396Z,4.45
2022-12-11T13:03:18.494Z,5.72
2022-12-11T13:05:55.991Z,5.80
2022-12-11T13:08:27.810Z,6.95
2022-12-11T13:11:03.606Z,5.70
2022-12-11T13:13:38.500Z,5.97
2022-12-11T13:16:17.181Z,5.45
2022-12-11T13:18:47.346Z,5.10
2022-12-11T13:21:33.124Z,4.95
2022-12-11T13:24:46.477Z,5.53
2022-12-11T13:27:42.813Z,6.53
2022-12-11T13:30:14.803Z,5.70
2022-12-11T13:32:43.588Z,4.97
2022-12-11T13:35:16.249Z,5.13
2022-12-11T13:37:49.797Z,4.70
2022-12-11T13:40:25.891Z,6.38
2022-12-11T13:42:56.950Z,4.78
2022-12-11T13:45:29.011Z,5.00
2022-12-11T13:47:59.014Z,4.70
2022-12-11T13:50:29.972Z,3.45
2022-12-11T13:52:58.557Z,3.13
2022-12-11T13:55:31.316Z,2.88
2022-12-11T13:57:58.197Z,4.68
2022-12-11T14:00:30.394Z,4.10
2022-12-11T14:03:00.253Z,3.78
2022-12-11T14:05:28.396Z,4.00
2022-12-11T14:08:02.319Z,5.10
2022-12-11T14:10:32.379Z,3.60
2022-12-11T14:13:19.786Z,4.60
2022-12-11T14:15:46.546Z,4.95
2022-12-11T14:18:17.861Z,5.57
2022-12-11T14:20:44.260Z,4.43
2022-12-11T14:23:18.966Z,5.03
2022-12-11T14:25:56.766Z,4.28
2022-12-11T14:28:27.486Z,4.05
2022-12-11T14:30:58.081Z,5.03
2022-12-11T14:33:30.562Z,4.75
2022-12-11T14:35:57.834Z,5.03
2022-12-11T14:38:33.444Z,4.40
2022-12-11T14:41:05.177Z,3.97
2022-12-11T14:43:44.987Z,3.85
2022-12-11T14:46:19.642Z,3.72
2022-12-11T14:49:02.197Z,3.15
2022-12-11T14:51:38.567Z,3.92
2022-12-11T14:54:06.261Z,4.25
2022-12-11T14:56:33.484Z,4.18
2022-12-11T14:59:06.580Z,4.50
2022-12-11T15:01:37.350Z,4.82
2022-12-11T15:04:07.163Z,5.03
2022-12-11T15:06:45.441Z,6.70
2022-12-11T15:09:36.519Z,4.63
2022-12-11T15:12:15.766Z,5.47
2022-12-11T15:14:58.148Z,4.30
2022-12-11T15:17:26.020Z,4.30
2022-12-11T15:20:02.406Z,3.72
2022-12-11T15:22:32.247Z,4.25
2022-12-11T15:25:00.009Z,4.57
2022-12-11T15:27:35.598Z,4.43
2022-12-11T15:30:14.396Z,6.30
2022-12-11T15:32:41.094Z,7.40
2022-12-11T15:35:27.348Z,5.80
2022-12-11T15:37:56.253Z,4.43
2022-12-11T15:40:23.240Z,5.85
2022-12-11T15:42:50.839Z,4.95
2022-12-11T15:45:20.409Z,6.05
2022-12-11T15:47:48.221Z,7.00
2022-12-11T15:50:41.414Z,8.10
2022-12-11T15:53:09.112Z,6.85
2022-12-11T15:55:38.281Z,5.38
2022-12-11T15:58:07.691Z,5.28
2022-12-11T16:00:34.006Z,6.85
2022-12-11T16:03:00.365Z,4.57
2022-12-11T16:05:26.858Z,6.00
2022-12-11T16:07:54.656Z,4.78
2022-12-11T16:10:22.068Z,5.93
2022-12-11T16:12:48.451Z,5.22
2022-12-11T16:15:21.465Z,6.43
2022-12-11T16:17:49.752Z,5.72
2022-12-11T16:20:16.173Z,5.85
2022-12-11T16:22:42.499Z,5.78
2022-12-11T16:25:09.021Z,4.68
2022-12-11T16:27:35.605Z,5.97
2022-12-11T16:30:02.016Z,4.82
2022-12-11T16:32:28.361Z,6.47
2022-12-11T16:34:54.896Z,6.50
2022-12-11T16:37:21.389Z,5.13
2022-12-11T16:39:48.068Z,5.57
2022-12-11T16:42:14.392Z,6.25
2022-12-11T16:44:43.962Z,6.82
2022-12-11T16:47:10.721Z,6.55
2022-12-11T16:49:37.138Z,6.53
2022-12-11T16:52:03.694Z,8.15
2022-12-11T16:54:30.089Z,5.28
2022-12-11T16:56:56.441Z,6.25
2022-12-11T16:59:22.782Z,5.75
2022-12-11T17:01:50.573Z,8.55
2022-12-11T17:04:17.033Z,7.63
2022-12-11T17:06:43.395Z,7.43
2022-12-11T17:09:09.721Z,6.45
2022-12-11T17:11:36.083Z,8.98
2022-12-11T17:14:02.469Z,6.70
2022-12-11T17:16:30.492Z,6.38
2022-12-11T17:21:23.866Z,5.43
2022-12-11T17:23:50.814Z,5.55
2022-12-11T17:26:18.242Z,6.10
2022-12-11T17:28:45.143Z,6.90
2022-12-11T17:31:17.197Z,6.45
2022-12-11T17:33:44.861Z,6.40
2022-12-11T17:36:17.999Z,6.18
2022-12-11T17:38:44.655Z,5.03
2022-12-11T17:41:19.806Z,7.32
2022-12-11T17:43:48.299Z,6.13
2022-12-11T17:46:14.908Z,6.65
2022-12-11T17:48:41.414Z,6.82
2022-12-11T17:51:09.304Z,6.65
2022-12-11T17:53:36.678Z,6.28
2022-12-11T17:56:05.807Z,6.57
2022-12-11T17:58:32.721Z,6.30
2022-12-11T18:00:59.815Z,7.80
2022-12-11T18:03:28.142Z,7.20
2022-12-11T18:05:56.593Z,9.25
2022-12-11T18:08:26.941Z,6.68
2022-12-11T18:10:54.267Z,5.47
2022-12-11T18:13:21.907Z,6.43
2022-12-11T18:16:04.048Z,5.35
2022-12-11T18:18:31.025Z,6.78
2022-12-11T18:20:57.452Z,11.10
2022-12-11T18:23:24.098Z,9.68
2022-12-11T18:25:52.080Z,9.60
2022-12-11T18:30:45.568Z,6.75
2022-12-11T18:33:13.023Z,7.53
2022-12-11T18:35:40.294Z,8.07
2022-12-11T18:38:07.209Z,8.23
2022-12-11T18:40:34.160Z,7.68
2022-12-11T18:43:00.562Z,7.22
2022-12-11T18:45:27.048Z,7.75
2022-12-11T18:47:55.602Z,7.47
2022-12-11T18:50:22.009Z,7.00
2022-12-11T18:52:53.070Z,7.68
2022-12-11T18:55:19.430Z,8.05
2022-12-11T18:57:45.828Z,8.07
2022-12-11T19:00:13.158Z,6.20
2022-12-11T19:02:39.803Z,7.25
2022-12-11T19:05:06.423Z,6.65
2022-12-11T19:07:32.869Z,7.10
2022-12-11T19:09:59.228Z,8.57
2022-12-11T19:12:25.680Z,8.40
2022-12-11T19:14:52.038Z,8.95
2022-12-11T19:17:18.382Z,7.90
2022-12-11T19:19:46.250Z,8.25
2022-12-11T19:22:13.206Z,8.90
2022-12-11T19:24:39.797Z,10.57
2022-12-11T19:27:13.088Z,7.43
2022-12-11T19:29:40.152Z,8.68
2022-12-11T19:32:06.621Z,7.63
2022-12-11T19:34:33.069Z,7.05
2022-12-11T19:36:59.549Z,8.18
2022-12-11T19:39:26.213Z,8.57
2022-12-11T19:41:52.597Z,8.02
2022-12-11T19:44:18.999Z,8.02
2022-12-11T19:46:45.465Z,8.00
2022-12-11T19:49:12.134Z,9.85
2022-12-11T19:51:40.576Z,8.10
2022-12-11T19:54:09.041Z,8.02
2022-12-11T19:56:36.128Z,9.23
2022-12-11T19:59:07.250Z,7.22
2022-12-11T20:01:36.545Z,9.05
2022-12-11T20:04:06.451Z,7.82
2022-12-11T20:06:35.785Z,9.75
2022-12-11T20:09:05.681Z,6.95
2022-12-11T20:11:33.472Z,7.82
2022-12-11T20:13:59.959Z,7.88
2022-12-11T20:16:53.423Z,9.82
2022-12-11T20:19:12.950Z,10.80
2022-12-11T20:21:39.330Z,9.10
2022-12-11T20:24:06.489Z,8.85
2022-12-11T20:26:35.887Z,8.20
2022-12-11T20:29:05.153Z,9.68
2022-12-11T20:31:31.605Z,7.97
2022-12-11T20:33:58.126Z,8.88
2022-12-11T20:36:25.912Z,7.72
2022-12-11T20:38:52.238Z,10.05
2022-12-11T20:41:23.765Z,9.85
2022-12-11T20:43:50.650Z,9.00
2022-12-11T20:46:18.549Z,8.75
2022-12-11T20:51:14.579Z,7.32
2022-12-11T20:53:42.326Z,8.18
2022-12-11T20:56:14.683Z,7.75
2022-12-11T20:58:41.267Z,12.70
2022-12-11T21:01:12.488Z,7.85
2022-12-11T21:03:41.991Z,6.95
2022-12-11T21:06:17.278Z,10.10
2022-12-11T21:08:43.619Z,8.60
2022-12-11T21:11:10.443Z,8.48
2022-12-11T21:13:37.275Z,8.55
2022-12-11T21:16:07.936Z,7.95
2022-12-11T21:18:34.411Z,8.05
2022-12-11T21:21:00.769Z,8.43
2022-12-11T21:23:27.144Z,8.85
2022-12-11T21:25:53.985Z,7.88
2022-12-11T21:28:20.958Z,10.93
2022-12-11T21:30:47.365Z,8.00
2022-12-11T21:33:13.997Z,7.80
2022-12-11T21:35:40.524Z,7.65
2022-12-11T21:38:06.944Z,9.93
2022-12-11T21:40:34.042Z,7.75
2022-12-11T21:43:00.477Z,9.40
2022-12-11T21:45:59.356Z,9.55
2022-12-11T21:50:41.214Z,6.80
2022-12-11T21:53:07.556Z,9.77
2022-12-11T21:55:33.970Z,8.90
2022-12-11T21:58:00.363Z,8.75
2022-12-11T22:00:28.171Z,8.48
2022-12-11T22:02:54.704Z,8.32
2022-12-11T22:05:21.189Z,7.78
2022-12-11T22:07:47.577Z,7.63
2022-12-11T22:10:14.022Z,8.02
2022-12-11T22:12:40.440Z,8.50
2022-12-11T22:15:07.709Z,7.57
2022-12-11T22:17:34.121Z,9.82
2022-12-11T22:20:00.480Z,9.25
2022-12-11T22:22:26.967Z,7.57
2022-12-11T22:24:53.302Z,8.60
2022-12-11T22:27:23.664Z,7.95
2022-12-11T22:29:50.276Z,8.13
2022-12-11T22:32:16.656Z,8.68
2022-12-11T22:34:43.045Z,7.60
2022-12-11T22:37:09.532Z,8.15
2022-12-11T22:39:35.886Z,10.07
2022-12-11T22:42:02.250Z,6.97
2022-12-11T22:44:28.602Z,8.57
2022-12-11T22:46:55.053Z,6.78
2022-12-11T22:49:21.456Z,8.63
2022-12-11T22:51:48.928Z,8.57
2022-12-11T22:54:15.486Z,8.20
2022-12-11T22:56:41.801Z,7.78
2022-12-11T22:59:08.281Z,8.23
2022-12-11T23:01:34.726Z,9.70
2022-12-11T23:04:01.051Z,8.18
2022-12-11T23:06:27.519Z,8.02
2022-12-11T23:08:58.219Z,7.18
2022-12-11T23:11:34.807Z,10.60
2022-12-11T23:14:01.475Z,9.88
2022-12-11T23:16:28.373Z,10.20
2022-12-11T23:18:55.958Z,8.05
2022-12-11T23:21:23.125Z,7.88
2022-12-11T23:23:49.688Z,6.97
2022-12-11T23:26:18.630Z,8.45
2022-12-11T23:28:46.037Z,8.80
2022-12-11T23:31:12.558Z,7.93
2022-12-11T23:33:39.041Z,8.25
2022-12-11T23:36:06.076Z,6.40
2022-12-11T23:38:32.581Z,7.32
2022-12-11T23:41:01.413Z,8.25
2022-12-11T23:43:27.918Z,8.75
2022-12-11T23:45:54.423Z,8.50
2022-12-11T23:48:21.031Z,8.38
2022-12-11T23:50:48.090Z,8.65
2022-12-11T23:53:14.927Z,8.82
2022-12-11T23:55:43.873Z,10.02
2022-12-11T23:58:10.746Z,7.90
